createdAt,value
2023-03-20T00:05:51.062Z,100
2023-03-20T00:11:51.064Z,100
2023-03-20T00:17:51.014Z,100
2023-03-20T00:23:51.031Z,100
2023-03-20T00:29:51.029Z,100
2023-03-20T00:35:51.073Z,100
2023-03-20T00:41:51.055Z,100
2023-03-20T00:47:51.037Z,100
2023-03-20T00:53:51.013Z,100
2023-03-20T00:59:51.024Z,100
2023-03-20T01:05:51.019Z,100
2023-03-20T01:11:53.011Z,100
2023-03-20T01:17:51.021Z,100
2023-03-20T01:23:51.009Z,100
2023-03-20T01:29:50.993Z,100
2023-03-20T01:35:51.114Z,100
2023-03-20T01:41:51.008Z,100
2023-03-20T01:47:50.998Z,100
2023-03-20T01:53:51.198Z,100
2023-03-20T01:59:50.998Z,100
2023-03-20T02:05:51.021Z,100
2023-03-20T02:11:51.041Z,100
2023-03-20T02:17:51.063Z,100
2023-03-20T02:23:51.023Z,100
2023-03-20T02:29:51.080Z,100
2023-03-20T02:35:51.040Z,100
2023-03-20T02:41:51.035Z,100
2023-03-20T02:47:51.105Z,100
2023-03-20T02:53:50.998Z,100
2023-03-20T02:59:51.014Z,100
2023-03-20T03:05:51.019Z,100
2023-03-20T03:11:50.997Z,100
2023-03-20T03:17:50.992Z,100
2023-03-20T03:23:51.039Z,100
2023-03-20T03:29:50.999Z,100
2023-03-20T03:35:51.010Z,100
2023-03-20T03:41:51.038Z,100
2023-03-20T03:47:51.003Z,100
2023-03-20T03:53:51.002Z,100
2023-03-20T03:59:51.018Z,100
2023-03-20T04:05:55.891Z,100
2023-03-20T04:11:51.008Z,100
2023-03-20T04:17:51.039Z,100
2023-03-20T04:23:50.997Z,100
2023-03-20T04:29:50.991Z,100
2023-03-20T04:35:51.068Z,100
2023-03-20T04:41:51.004Z,100
2023-03-20T04:47:50.993Z,100
2023-03-20T04:53:51.013Z,100
2023-03-20T04:59:51.042Z,100
2023-03-20T05:05:54.674Z,100
2023-03-20T05:11:51.029Z,100
2023-03-20T05:17:51.901Z,100
2023-03-20T05:23:51.012Z,100
2023-03-20T05:29:51.033Z,100
2023-03-20T05:35:51.051Z,100
2023-03-20T05:41:50.992Z,100
2023-03-20T05:47:51.022Z,100
2023-03-20T05:53:51.006Z,100
2023-03-20T05:59:51.031Z,100
2023-03-20T06:05:51.092Z,100
2023-03-20T06:11:50.980Z,100
2023-03-20T06:17:51.011Z,100
2023-03-20T06:23:51.013Z,100
2023-03-20T06:29:51.016Z,100
2023-03-20T06:35:51.029Z,100
2023-03-20T06:41:51.031Z,100
2023-03-20T06:47:51.200Z,100
2023-03-20T06:53:51.005Z,100
2023-03-20T06:59:51.001Z,100
2023-03-20T07:05:50.995Z,100
2023-03-20T07:11:50.990Z,100
2023-03-20T07:17:51.012Z,100
2023-03-20T07:23:51.013Z,100
2023-03-20T07:29:51.090Z,100
2023-03-20T07:35:51.106Z,100
2023-03-20T07:41:50.997Z,100
2023-03-20T07:47:51.151Z,100
2023-03-20T07:53:51.115Z,100
2023-03-20T07:59:51.006Z,100
2023-03-20T08:05:50.986Z,100
2023-03-20T08:11:51.020Z,100
2023-03-20T08:17:51.001Z,100
2023-03-20T08:23:51.006Z,100
2023-03-20T08:29:51.214Z,100
2023-03-20T08:35:51.379Z,100
2023-03-20T08:41:51.011Z,100
2023-03-20T08:47:51.026Z,100
2023-03-20T08:53:51.006Z,97.5
2023-03-20T08:59:51.023Z,96.6
2023-03-20T09:05:51.152Z,100
2023-03-20T09:11:51.000Z,99.9
2023-03-20T09:17:51.317Z,95.7
2023-03-20T09:23:51.266Z,91.7
2023-03-20T09:29:51.010Z,85.1
2023-03-20T09:35:51.015Z,87.5
2023-03-20T09:41:56.993Z,86.8
2023-03-20T09:47:50.997Z,87.3
2023-03-20T09:53:50.992Z,88.3
2023-03-20T09:59:51.063Z,85.2
2023-03-20T10:05:51.016Z,81.3
2023-03-20T10:11:50.999Z,84.1
2023-03-20T10:17:51.008Z,82.6
2023-03-20T10:23:51.017Z,79.2
2023-03-20T10:29:51.058Z,81
2023-03-20T10:35:51.174Z,80.6
2023-03-20T10:41:51.038Z,79.6
2023-03-20T10:47:51.157Z,76
2023-03-20T10:53:51.033Z,78.4
2023-03-20T10:59:51.023Z,78.2
2023-03-20T11:06:06.625Z,78.1
2023-03-20T11:11:51.033Z,80.1
2023-03-20T11:17:51.024Z,77.2
2023-03-20T11:23:50.997Z,76.8
2023-03-20T11:29:51.037Z,75.1
2023-03-20T11:35:51.033Z,74.5
2023-03-20T11:41:51.022Z,76.1
2023-03-20T11:47:51.028Z,73.6
2023-03-20T11:53:51.006Z,71.5
2023-03-20T11:59:51.027Z,71.4
2023-03-20T12:05:51.018Z,72.6
2023-03-20T12:11:51.005Z,74.1
2023-03-20T12:17:51.005Z,71.3
2023-03-20T12:23:51.043Z,77.4
2023-03-20T12:29:51.020Z,78.1
2023-03-20T12:35:51.066Z,76.1
2023-03-20T12:41:51.049Z,74.9
2023-03-20T12:47:51.008Z,72.3
2023-03-20T12:53:51.009Z,71.8
2023-03-20T12:59:51.036Z,73
2023-03-20T13:05:51.015Z,70.9
2023-03-20T13:11:51.006Z,72.7
2023-03-20T13:17:51.050Z,72.2
2023-03-20T13:23:51.012Z,72.4
2023-03-20T13:29:51.008Z,70.6
2023-03-20T13:35:51.115Z,75.3
2023-03-20T13:41:51.025Z,73
2023-03-20T13:47:51.019Z,74.3
2023-03-20T13:53:51.051Z,73.4
2023-03-20T13:59:51.017Z,71.6
2023-03-20T14:05:51.013Z,71.9
2023-03-20T14:11:51.045Z,74.5
2023-03-20T14:17:51.043Z,72.6
2023-03-20T14:23:51.018Z,75.4
2023-03-20T14:29:51.090Z,72.4
2023-03-20T14:35:51.134Z,72.2
2023-03-20T14:41:51.016Z,72.9
2023-03-20T14:47:51.036Z,73
2023-03-20T14:53:51.030Z,73
2023-03-20T14:59:51.003Z,68.6
2023-03-20T15:05:51.044Z,70.9
2023-03-20T15:11:50.996Z,70.4
2023-03-20T15:18:01.296Z,68.3
2023-03-20T15:23:51.133Z,69.8
2023-03-20T15:29:50.994Z,71
2023-03-20T15:35:51.036Z,70.1
2023-03-20T15:41:51.051Z,72.6
2023-03-20T15:47:51.026Z,73.2
2023-03-20T15:53:51.420Z,71.8
2023-03-20T15:59:51.030Z,73.7
2023-03-20T16:05:51.008Z,71.6
2023-03-20T16:11:51.016Z,72.8
2023-03-20T16:17:51.057Z,71
2023-03-20T16:23:51.045Z,73.3
2023-03-20T16:29:51.019Z,72.6
2023-03-20T16:35:51.166Z,73.1
2023-03-20T16:41:51.027Z,73.3
2023-03-20T16:47:51.054Z,74.1
2023-03-20T16:53:51.091Z,72.9
2023-03-20T16:59:51.029Z,72.9
2023-03-20T17:05:51.101Z,72.6
2023-03-20T17:11:51.037Z,75
2023-03-20T17:17:51.097Z,77.2
2023-03-20T17:23:51.007Z,78.4
2023-03-20T17:29:51.048Z,77.6
2023-03-20T17:35:51.064Z,77.6
2023-03-20T17:41:51.026Z,80.1
2023-03-20T17:47:51.046Z,77.8
2023-03-20T17:53:51.017Z,77.8
2023-03-20T17:59:51.056Z,79.2
2023-03-20T18:05:51.064Z,79.6
2023-03-20T18:11:51.014Z,80.4
2023-03-20T18:17:51.036Z,80.5
2023-03-20T18:23:51.067Z,79.4
2023-03-20T18:29:51.011Z,80.6
2023-03-20T18:35:51.067Z,79.9
2023-03-20T18:41:51.125Z,82.6
2023-03-20T18:47:51.027Z,79.3
2023-03-20T18:53:51.010Z,80.1
2023-03-20T18:59:51.045Z,79.6
2023-03-20T19:05:51.026Z,81.2
2023-03-20T19:11:51.015Z,81
2023-03-20T19:17:51.061Z,82
2023-03-20T19:23:51.024Z,83
2023-03-20T19:30:01.303Z,83.5
2023-03-20T19:36:04.680Z,82.9
2023-03-20T19:41:51.278Z,81.7
2023-03-20T19:47:51.016Z,82.2
2023-03-20T19:53:51.058Z,83.4
2023-03-20T19:59:52.877Z,81.9
2023-03-20T20:05:51.051Z,81.6
2023-03-20T20:11:51.048Z,83.2
2023-03-20T20:17:51.015Z,82.1
2023-03-20T20:23:51.015Z,82.2
2023-03-20T20:29:51.089Z,82.8
2023-03-20T20:36:21.290Z,81.6
2023-03-20T20:41:51.001Z,84.2
2023-03-20T20:47:51.030Z,84.1
2023-03-20T20:53:51.015Z,84.3
2023-03-20T20:59:51.030Z,82.3
2023-03-20T21:05:51.034Z,84
2023-03-20T21:11:51.016Z,85.1
2023-03-20T21:18:00.397Z,83.8
2023-03-20T21:23:51.316Z,85.2
2023-03-20T21:29:51.015Z,85.2
2023-03-20T21:35:51.096Z,85.3
2023-03-20T21:41:51.087Z,85
2023-03-20T21:48:27.049Z,84.9
2023-03-20T21:54:51.264Z,85.2
2023-03-20T22:00:34.944Z,85
2023-03-20T22:06:37.003Z,85.8
2023-03-20T22:47:51.027Z,86.3
2023-03-20T22:53:51.032Z,89.2
2023-03-20T22:59:51.009Z,86.9
2023-03-20T23:05:51.052Z,89.6
2023-03-20T23:11:51.031Z,90.3
2023-03-20T23:17:51.007Z,90.1
2023-03-20T23:23:51.027Z,89.5
2023-03-20T23:29:51.046Z,88.9
2023-03-20T23:35:51.418Z,88.6
2023-03-20T23:42:08.345Z,89.3
2023-03-20T23:48:01.422Z,88.6
2023-03-20T23:53:51.019Z,88.7
2023-03-20T23:59:51.014Z,89.4
